Time;durP1;ratioP1;P1;durP2;ratioP2;P2;SDS_P1;SDS_P2;PMS_P1;PMS_P2;Temp;Humidity;BMP_temperature;BMP_pressure;BME280_temperature;BME280_humidity;BME280_pressure;Samples;Min_cycle;Max_cycle;Signal;HPM_P1;HPM_P2
2023/09/03 00:02:11;;;;;;;10.13;2.72;;;;;;;;;;5069569;28;20048;-66
2023/09/03 00:04:37;;;;;;;5.97;2.35;;;;;;;;;;5074091;28;20068;-64
2023/09/03 00:07:04;;;;;;;9.60;2.83;;;;;;;;;;5071988;28;20059;-64
2023/09/03 00:09:31;;;;;;;4.30;2.03;;;;;;;;;;5074134;28;20102;-63
2023/09/03 00:11:59;;;;;;;5.30;2.50;;;;;;;;;;5080181;28;20044;-65
2023/09/03 00:14:25;;;;;;;4.22;2.15;;;;;;;;;;5053927;28;20151;-65
2023/09/03 00:16:52;;;;;;;5.28;2.10;;;;;;;;;;5058304;28;20060;-63
2023/09/03 00:19:19;;;;;;;6.68;2.50;;;;;;;;;;5060143;28;20045;-65
2023/09/03 00:21:45;;;;;;;5.55;2.10;;;;;;;;;;5062596;28;20148;-65
2023/09/03 00:24:12;;;;;;;9.02;2.45;;;;;;;;;;5054832;28;20082;-65
2023/09/03 00:26:38;;;;;;;4.93;2.30;;;;;;;;;;5040687;28;20056;-64
2023/09/03 00:29:07;;;;;;;6.20;2.28;;;;;;;;;;5041990;28;20061;-64
2023/09/03 00:31:33;;;;;;;5.05;2.33;;;;;;;;;;5041863;28;20056;-64
2023/09/03 00:34:00;;;;;;;4.43;2.15;;;;;;;;;;5045821;28;20115;-65
2023/09/03 00:36:26;;;;;;;6.38;2.00;;;;;;;;;;5031062;28;20049;-64
2023/09/03 00:38:53;;;;;;;5.28;2.00;;;;;;;;;;5040765;28;20187;-64
2023/09/03 00:41:20;;;;;;;5.63;2.20;;;;;;;;;;5042189;28;20049;-67
2023/09/03 00:43:46;;;;;;;5.32;2.45;;;;;;;;;;5039295;28;20053;-63
2023/09/03 00:46:14;;;;;;;4.82;2.28;;;;;;;;;;5030767;28;20098;-65
2023/09/03 00:48:42;;;;;;;4.45;2.30;;;;;;;;;;5042324;28;20114;-65
2023/09/03 00:51:10;;;;;;;4.40;2.20;;;;;;;;;;5042665;28;20122;-65
2023/09/03 00:53:39;;;;;;;9.20;2.30;;;;;;;;;;5040943;28;20141;-66
2023/09/03 00:56:07;;;;;;;;;;;;;;;;;;5065645;28;20060;-64
2023/09/03 00:58:35;;;;;;;8.02;2.38;;;;;;;;;;5055532;28;21037;-64
2023/09/03 01:01:02;;;;;;;;;;;;;;;;;;5060520;28;21151;-66
2023/09/03 01:03:30;;;;;;;4.38;2.22;;;;;;;;;;5060617;28;19924;-63
2023/09/03 01:05:56;;;;;;;6.60;2.53;;;;;;;;;;5055814;28;20052;-64
2023/09/03 01:08:24;;;;;;;4.82;2.45;;;;;;;;;;5053817;28;20076;-64
2023/09/03 01:11:01;;;;;;;5.90;2.60;;;;;;;;;;5066258;28;20036;-65
2023/09/03 01:13:36;;;;;;;4.30;2.33;;;;;;;;;;5061550;28;20041;-65
2023/09/03 01:16:08;;;;;;;6.38;2.50;;;;;;;;;;5057264;28;20109;-64
2023/09/03 01:18:38;;;;;;;4.78;2.15;;;;;;;;;;5053752;28;20155;-64
2023/09/03 01:21:28;;;;;;;4.97;2.60;;;;;;;;;;5060243;28;20084;-64
2023/09/03 01:24:05;;;;;;;4.32;2.40;;;;;;;;;;5062321;28;20048;-64
2023/09/03 01:26:45;;;;;;;7.45;2.30;;;;;;;;;;5048300;28;20056;-66
2023/09/03 01:29:14;;;;;;;5.45;2.60;;;;;;;;;;5059122;28;20122;-64
2023/09/03 01:31:42;;;;;;;10.48;2.67;;;;;;;;;;5060073;28;20177;-65
2023/09/03 01:34:10;;;;;;;4.82;2.40;;;;;;;;;;5056832;28;20114;-64
2023/09/03 01:36:37;;;;;;;9.55;2.45;;;;;;;;;;5048117;28;20067;-65
2023/09/03 01:39:04;;;;;;;4.47;2.58;;;;;;;;;;5055371;28;20115;-65
2023/09/03 01:41:32;;;;;;;5.95;2.70;;;;;;;;;;5038981;28;20128;-63
2023/09/03 01:43:59;;;;;;;4.97;2.38;;;;;;;;;;5075787;28;20143;-64
2023/09/03 01:46:37;;;;;;;5.78;2.38;;;;;;;;;;5063376;28;20048;-64
2023/09/03 01:49:16;;;;;;;5.10;2.35;;;;;;;;;;5059011;28;20052;-66
2023/09/03 01:51:47;;;;;;;6.03;2.80;;;;;;;;;;5060990;28;20148;-64
2023/09/03 01:54:18;;;;;;;9.70;2.70;;;;;;;;;;5052372;28;20153;-65
2023/09/03 01:56:51;;;;;;;7.28;2.95;;;;;;;;;;5036906;28;20144;-66
2023/09/03 01:59:20;;;;;;;5.70;2.63;;;;;;;;;;5041834;28;20077;-64
2023/09/03 02:01:50;;;;;;;;;;;;;;;;;;5056487;28;20084;-66
2023/09/03 02:04:18;;;;;;;5.82;2.60;;;;;;;;;;5035635;28;20030;-65
2023/09/03 02:06:46;;;;;;;7.35;3.10;;;;;;;;;;5060848;28;20149;-66
2023/09/03 02:09:13;;;;;;;5.65;2.78;;;;;;;;;;5057661;28;20053;-65
2023/09/03 02:11:39;;;;;;;6.60;3.20;;;;;;;;;;5058792;28;20464;-65
2023/09/03 02:14:06;;;;;;;8.95;3.50;;;;;;;;;;5057880;28;20141;-63
2023/09/03 02:16:33;;;;;;;9.00;2.88;;;;;;;;;;5055430;28;20052;-64
2023/09/03 02:19:01;;;;;;;9.15;3.22;;;;;;;;;;5061651;28;20122;-63
2023/09/03 02:21:28;;;;;;;8.35;3.10;;;;;;;;;;5061453;28;20064;-62
2023/09/03 02:23:54;;;;;;;6.90;3.15;;;;;;;;;;5054526;28;20076;-63
2023/09/03 02:26:21;;;;;;;9.48;3.38;;;;;;;;;;5056657;28;20091;-65
2023/09/03 02:28:48;;;;;;;6.55;3.20;;;;;;;;;;5058968;28;20143;-63
2023/09/03 02:36:11;;;;;;;7.72;3.10;;;;;;;;;;4992059;28;20061;-67
2023/09/03 02:38:38;;;;;;;5.47;2.95;;;;;;;;;;4974226;28;20128;-64
2023/09/03 02:41:04;;;;;;;8.43;3.22;;;;;;;;;;4997512;28;20061;-65
2023/09/03 02:43:31;;;;;;;6.32;3.33;;;;;;;;;;4998683;28;20060;-65
2023/09/03 02:45:58;;;;;;;9.00;2.92;;;;;;;;;;4974900;28;20116;-66
2023/09/03 02:48:24;;;;;;;6.82;3.13;;;;;;;;;;4971601;28;20135;-66
2023/09/03 02:50:51;;;;;;;6.75;3.28;;;;;;;;;;4997930;28;20053;-66
2023/09/03 02:53:19;;;;;;;6.55;3.15;;;;;;;;;;5010188;28;20143;-66
2023/09/03 02:55:46;;;;;;;7.55;2.70;;;;;;;;;;4991624;28;20060;-67
2023/09/03 02:58:12;;;;;;;8.80;3.15;;;;;;;;;;4981539;28;20144;-66
2023/09/03 03:00:39;;;;;;;7.65;3.28;;;;;;;;;;4976263;28;20081;-65
2023/09/03 03:03:05;;;;;;;6.50;3.08;;;;;;;;;;4997255;28;20061;-65
2023/09/03 03:05:32;;;;;;;8.43;3.22;;;;;;;;;;4974679;28;20060;-66
2023/09/03 03:08:02;;;;;;;10.88;3.65;;;;;;;;;;4979237;28;20159;-67
2023/09/03 03:10:30;;;;;;;8.27;3.40;;;;;;;;;;4970336;28;20051;-64
2023/09/03 03:12:57;;;;;;;5.60;2.88;;;;;;;;;;4978532;28;20054;-66
2023/09/03 03:15:24;;;;;;;6.68;3.13;;;;;;;;;;4993305;28;20060;-65
2023/09/03 03:17:51;;;;;;;7.72;3.20;;;;;;;;;;4980367;28;20058;-65
2023/09/03 03:20:18;;;;;;;7.43;3.38;;;;;;;;;;4987170;28;20058;-65
2023/09/03 03:22:44;;;;;;;8.23;3.38;;;;;;;;;;4994952;28;20072;-65
2023/09/03 03:25:11;;;;;;;7.47;3.45;;;;;;;;;;4993877;28;20056;-65
2023/09/03 03:27:39;;;;;;;7.88;3.38;;;;;;;;;;4982677;28;20049;-65
2023/09/03 03:30:07;;;;;;;7.28;3.20;;;;;;;;;;4996660;28;20177;-64
2023/09/03 03:32:34;;;;;;;7.25;3.55;;;;;;;;;;4975868;28;20130;-64
2023/09/03 03:35:01;;;;;;;7.20;3.90;;;;;;;;;;4980403;28;20081;-66
2023/09/03 03:37:27;;;;;;;11.43;3.70;;;;;;;;;;5025376;28;20078;-66
2023/09/03 03:39:54;;;;;;;8.32;3.50;;;;;;;;;;4996209;28;20090;-67
2023/09/03 03:42:20;;;;;;;8.43;3.83;;;;;;;;;;5006576;28;20053;-65
2023/09/03 03:44:48;;;;;;;8.32;3.97;;;;;;;;;;5007185;28;20124;-65
2023/09/03 03:47:15;;;;;;;8.45;3.92;;;;;;;;;;4995897;28;20082;-65
2023/09/03 03:49:42;;;;;;;7.85;3.95;;;;;;;;;;4997354;28;20058;-65
2023/09/03 03:52:08;;;;;;;9.68;4.25;;;;;;;;;;4998596;28;20077;-63
2023/09/03 03:54:36;;;;;;;8.40;4.05;;;;;;;;;;5006907;28;21780;-66
2023/09/03 03:57:03;;;;;;;9.45;3.58;;;;;;;;;;5000708;28;20062;-65
2023/09/03 03:59:30;;;;;;;8.27;3.97;;;;;;;;;;5000143;28;20136;-66
2023/09/03 04:01:58;;;;;;;7.78;3.70;;;;;;;;;;5000267;28;20058;-66
2023/09/03 04:04:24;;;;;;;12.80;3.95;;;;;;;;;;4990137;28;20049;-65
2023/09/03 04:06:51;;;;;;;9.95;3.80;;;;;;;;;;4998923;28;20057;-65
2023/09/03 04:09:18;;;;;;;8.00;3.83;;;;;;;;;;5005758;28;20066;-65
2023/09/03 04:11:45;;;;;;;7.93;3.60;;;;;;;;;;5015249;28;20112;-66
2023/09/03 04:14:11;;;;;;;11.48;4.20;;;;;;;;;;5009145;28;20099;-66
2023/09/03 04:16:38;;;;;;;9.77;3.92;;;;;;;;;;4995423;28;20065;-65
2023/09/03 04:19:06;;;;;;;10.85;4.03;;;;;;;;;;5000449;28;20053;-66
2023/09/03 04:21:32;;;;;;;12.27;3.67;;;;;;;;;;5016740;28;20085;-65
2023/09/03 04:23:59;;;;;;;7.43;3.60;;;;;;;;;;5010769;28;20053;-66
2023/09/03 04:26:26;;;;;;;7.85;3.50;;;;;;;;;;4995166;28;20061;-67
2023/09/03 04:28:52;;;;;;;8.23;3.85;;;;;;;;;;4999000;28;20042;-67
2023/09/03 04:31:19;;;;;;;8.32;4.07;;;;;;;;;;5016972;28;20058;-67
2023/09/03 04:33:46;;;;;;;9.77;4.15;;;;;;;;;;4996447;28;20053;-64
2023/09/03 04:36:14;;;;;;;8.20;3.92;;;;;;;;;;4985163;28;20049;-66
2023/09/03 04:38:41;;;;;;;7.88;3.85;;;;;;;;;;4995698;28;20185;-67
2023/09/03 04:41:08;;;;;;;8.88;4.40;;;;;;;;;;5001335;28;20088;-65
2023/09/03 04:43:37;;;;;;;10.68;4.22;;;;;;;;;;4997928;28;20046;-66
2023/09/03 04:46:04;;;;;;;8.73;4.00;;;;;;;;;;4978771;28;20127;-65
2023/09/03 04:48:30;;;;;;;8.25;4.00;;;;;;;;;;4994693;28;20081;-66
2023/09/03 04:51:03;;;;;;;9.57;4.78;;;;;;;;;;4999377;28;20233;-66
2023/09/03 04:53:31;;;;;;;9.15;3.80;;;;;;;;;;4999890;28;20176;-64
2023/09/03 04:55:58;;;;;;;7.95;4.00;;;;;;;;;;4976449;28;20054;-65
2023/09/03 04:58:25;;;;;;;8.48;4.45;;;;;;;;;;4975080;28;20061;-66
2023/09/03 05:00:51;;;;;;;9.32;4.57;;;;;;;;;;4984150;28;20068;-63
2023/09/03 05:03:18;;;;;;;11.82;4.60;;;;;;;;;;5002625;28;20112;-67
2023/09/03 05:05:46;;;;;;;7.80;3.90;;;;;;;;;;4996158;28;20054;-66
2023/09/03 05:08:15;;;;;;;8.60;3.97;;;;;;;;;;4980000;28;20074;-66
2023/09/03 05:10:43;;;;;;;12.40;4.25;;;;;;;;;;4982397;28;20127;-66
2023/09/03 05:13:09;;;;;;;12.82;4.53;;;;;;;;;;4994766;28;20061;-64
2023/09/03 05:15:37;;;;;;;12.98;3.88;;;;;;;;;;4975877;28;20077;-66
2023/09/03 05:18:04;;;;;;;8.90;3.97;;;;;;;;;;4989858;28;20061;-67
2023/09/03 05:20:32;;;;;;;8.20;4.18;;;;;;;;;;4995232;28;20068;-65
2023/09/03 05:22:58;;;;;;;8.50;4.07;;;;;;;;;;5017071;28;20046;-64
2023/09/03 05:25:25;;;;;;;8.68;3.97;;;;;;;;;;5002128;28;20092;-63
2023/09/03 05:27:53;;;;;;;12.15;4.40;;;;;;;;;;5000551;28;20058;-65
2023/09/03 05:30:20;;;;;;;8.77;4.30;;;;;;;;;;4993177;28;20058;-64
2023/09/03 05:32:47;;;;;;;66.40;31.80;;;;;;;;;;4981267;28;20081;-66
2023/09/03 05:35:14;;;;;;;24.77;13.82;;;;;;;;;;4991084;28;20161;-64
2023/09/03 05:37:41;;;;;;;13.95;6.65;;;;;;;;;;4979150;28;20053;-64
2023/09/03 05:40:10;;;;;;;13.32;4.90;;;;;;;;;;4973043;28;20069;-65
2023/09/03 05:42:37;;;;;;;11.15;4.70;;;;;;;;;;4978992;28;20176;-67
2023/09/03 05:45:06;;;;;;;10.15;4.47;;;;;;;;;;4975476;28;20124;-66
2023/09/03 05:47:33;;;;;;;8.63;4.60;;;;;;;;;;4998593;28;20057;-66
2023/09/03 05:50:00;;;;;;;10.52;4.18;;;;;;;;;;4980103;28;20053;-66
2023/09/03 05:52:26;;;;;;;9.18;4.43;;;;;;;;;;4990268;28;20135;-65
2023/09/03 05:54:53;;;;;;;10.80;3.88;;;;;;;;;;4991861;28;20053;-64
2023/09/03 05:57:20;;;;;;;9.77;4.82;;;;;;;;;;4980541;28;20139;-63
2023/09/03 05:59:50;;;;;;;14.40;4.60;;;;;;;;;;4996839;28;20061;-68
2023/09/03 06:02:18;;;;;;;10.82;4.35;;;;;;;;;;4971516;28;20064;-64
2023/09/03 06:04:45;;;;;;;9.20;4.57;;;;;;;;;;4974904;28;20192;-67
2023/09/03 06:07:13;;;;;;;10.70;3.97;;;;;;;;;;4982617;28;20050;-65
2023/09/03 06:09:40;;;;;;;9.93;4.75;;;;;;;;;;4982197;28;20180;-63
2023/09/03 06:12:07;;;;;;;9.65;4.43;;;;;;;;;;4978061;28;20050;-67
2023/09/03 06:14:34;;;;;;;13.10;4.90;;;;;;;;;;5004820;28;20057;-65
2023/09/03 06:17:02;;;;;;;7.90;4.20;;;;;;;;;;4981211;28;20062;-67
2023/09/03 06:19:30;;;;;;;10.95;4.18;;;;;;;;;;4995390;28;20073;-64
2023/09/03 06:21:57;;;;;;;9.68;4.75;;;;;;;;;;4977324;28;20148;-65
2023/09/03 06:24:24;;;;;;;10.38;4.72;;;;;;;;;;4966228;28;20057;-65
2023/09/03 06:26:50;;;;;;;10.40;5.50;;;;;;;;;;4979678;28;20073;-63
2023/09/03 06:29:17;;;;;;;11.18;4.75;;;;;;;;;;4997668;28;20058;-66
2023/09/03 06:31:44;;;;;;;11.55;5.13;;;;;;;;;;4998695;28;20058;-65
2023/09/03 06:34:10;;;;;;;13.70;5.47;;;;;;;;;;4972813;28;20052;-65
2023/09/03 06:36:38;;;;;;;11.05;5.32;;;;;;;;;;4991579;28;20062;-67
2023/09/03 06:39:05;;;;;;;9.25;5.05;;;;;;;;;;5011448;28;20081;-66
2023/09/03 06:41:32;;;;;;;8.82;4.65;;;;;;;;;;5012916;28;20153;-66
2023/09/03 06:43:58;;;;;;;9.27;4.97;;;;;;;;;;4991553;28;20089;-66
2023/09/03 06:46:25;;;;;;;9.48;5.18;;;;;;;;;;4988981;28;20073;-66
2023/09/03 06:48:52;;;;;;;15.32;5.47;;;;;;;;;;4995914;28;20066;-63
2023/09/03 06:51:18;;;;;;;11.35;5.03;;;;;;;;;;5025716;28;20082;-65
2023/09/03 06:53:47;;;;;;;10.52;5.18;;;;;;;;;;4991477;28;20296;-66
2023/09/03 06:56:13;;;;;;;8.80;4.78;;;;;;;;;;4992022;28;20065;-64
2023/09/03 06:58:40;;;;;;;14.05;5.57;;;;;;;;;;4995724;28;20050;-65
2023/09/03 07:01:07;;;;;;;10.75;5.03;;;;;;;;;;4995926;28;20057;-64
2023/09/03 07:03:34;;;;;;;9.40;4.82;;;;;;;;;;4997091;28;20053;-63
2023/09/03 07:06:01;;;;;;;12.80;5.53;;;;;;;;;;4991269;28;20076;-66
2023/09/03 07:08:29;;;;;;;12.40;5.55;;;;;;;;;;4989288;28;20073;-63
2023/09/03 07:11:00;;;;;;;11.38;5.13;;;;;;;;;;4994492;28;20050;-64
2023/09/03 07:13:27;;;;;;;11.57;5.38;;;;;;;;;;4993921;28;20050;-64
2023/09/03 07:15:54;;;;;;;12.88;5.57;;;;;;;;;;4992584;28;20054;-65
2023/09/03 07:18:21;;;;;;;11.23;4.90;;;;;;;;;;4988823;28;20053;-64
2023/09/03 07:20:48;;;;;;;11.15;5.68;;;;;;;;;;4996625;28;20058;-64
2023/09/03 07:23:14;;;;;;;11.00;5.40;;;;;;;;;;4997921;28;20062;-64
2023/09/03 07:25:41;;;;;;;12.93;5.70;;;;;;;;;;4985697;28;20050;-65
2023/09/03 07:28:09;;;;;;;13.20;5.78;;;;;;;;;;4999517;28;20161;-64
2023/09/03 07:30:36;;;;;;;15.32;5.32;;;;;;;;;;4995124;28;20077;-66
2023/09/03 07:33:03;;;;;;;11.48;5.82;;;;;;;;;;5001634;28;20053;-65
2023/09/03 07:35:31;;;;;;;11.23;5.55;;;;;;;;;;5015423;28;20053;-65
2023/09/03 07:37:57;;;;;;;13.63;5.78;;;;;;;;;;5003780;28;20062;-63
2023/09/03 07:40:24;;;;;;;12.00;5.47;;;;;;;;;;4994977;28;20119;-65
2023/09/03 07:42:51;;;;;;;16.23;6.45;;;;;;;;;;5021377;28;20123;-66
2023/09/03 07:45:19;;;;;;;10.93;5.57;;;;;;;;;;4998701;28;20053;-66
2023/09/03 07:47:46;;;;;;;12.68;6.28;;;;;;;;;;5021175;28;20053;-63
2023/09/03 07:50:12;;;;;;;11.25;5.43;;;;;;;;;;4985725;28;20050;-65
2023/09/03 07:52:39;;;;;;;10.80;5.15;;;;;;;;;;4978255;28;20080;-62
2023/09/03 07:55:07;;;;;;;12.75;6.50;;;;;;;;;;5009000;28;20139;-64
2023/09/03 07:57:34;;;;;;;21.63;10.20;;;;;;;;;;5001348;28;20049;-64
2023/09/03 08:00:00;;;;;;;17.48;9.02;;;;;;;;;;5016544;28;20061;-64
2023/09/03 08:02:30;;;;;;;13.65;6.20;;;;;;;;;;4997386;28;20129;-64
2023/09/03 08:04:57;;;;;;;10.45;5.38;;;;;;;;;;5010870;28;20069;-64
2023/09/03 08:07:24;;;;;;;11.88;5.15;;;;;;;;;;5014285;28;20128;-63
2023/09/03 08:09:51;;;;;;;15.80;7.20;;;;;;;;;;5003237;28;20057;-64
2023/09/03 08:12:17;;;;;;;22.15;9.52;;;;;;;;;;4985918;28;20084;-64
2023/09/03 08:14:48;;;;;;;13.02;6.43;;;;;;;;;;5019045;28;20057;-66
2023/09/03 08:17:15;;;;;;;12.43;6.72;;;;;;;;;;5020225;28;20057;-64
2023/09/03 08:19:43;;;;;;;12.02;5.18;;;;;;;;;;5020165;28;20164;-63
2023/09/03 08:22:09;;;;;;;11.48;5.68;;;;;;;;;;5021060;28;20053;-66
2023/09/03 08:24:36;;;;;;;11.15;5.05;;;;;;;;;;5001429;28;20152;-64
2023/09/03 08:27:03;;;;;;;15.85;5.78;;;;;;;;;;4965212;28;20061;-65
2023/09/03 08:29:30;;;;;;;11.35;5.03;;;;;;;;;;4997187;28;20061;-64
2023/09/03 08:31:56;;;;;;;12.63;5.93;;;;;;;;;;4982510;28;20166;-64
2023/09/03 08:34:23;;;;;;;13.02;6.00;;;;;;;;;;4973923;28;20058;-64
2023/09/03 08:36:51;;;;;;;10.45;5.50;;;;;;;;;;4983760;28;20085;-64
2023/09/03 08:39:18;;;;;;;12.80;5.68;;;;;;;;;;4980169;28;20081;-64
2023/09/03 08:41:46;;;;;;;13.32;6.07;;;;;;;;;;4999289;28;20070;-65
2023/09/03 08:44:18;;;;;;;;;;;;;;;;;;4977325;28;20074;-65
2023/09/03 08:46:47;;;;;;;25.38;10.93;;;;;;;;;;5000053;28;20024;-65
2023/09/03 08:49:16;;;;;;;21.60;9.55;;;;;;;;;;4981995;28;20057;-64
2023/09/03 08:51:43;;;;;;;13.73;6.57;;;;;;;;;;5001093;28;20124;-70
2023/09/03 08:54:14;;;;;;;13.30;6.00;;;;;;;;;;4956314;28;20097;-67
2023/09/03 08:56:41;;;;;;;14.10;6.93;;;;;;;;;;5003550;28;20054;-63
2023/09/03 08:59:07;;;;;;;16.17;7.43;;;;;;;;;;5002904;28;20069;-63
2023/09/03 09:01:36;;;;;;;14.82;6.32;;;;;;;;;;5001126;28;20156;-63
2023/09/03 09:04:03;;;;;;;;;;;;;;;;;;4980494;28;20058;-62
2023/09/03 09:06:30;;;;;;;9.88;5.15;;;;;;;;;;4996007;28;19980;-64
2023/09/03 09:08:59;;;;;;;14.35;5.90;;;;;;;;;;5003489;28;20124;-63
2023/09/03 09:11:32;;;;;;;;;;;;;;;;;;4983467;28;20062;-64
2023/09/03 09:14:00;;;;;;;11.73;4.68;;;;;;;;;;4998266;28;19952;-63
2023/09/03 09:16:26;;;;;;;11.37;4.67;;;;;;;;;;4991830;28;20057;-64
2023/09/03 09:18:53;;;;;;;9.15;4.22;;;;;;;;;;4987426;28;20050;-64
2023/09/03 09:21:20;;;;;;;9.13;4.00;;;;;;;;;;5002741;28;20061;-65
2023/09/03 09:23:47;;;;;;;11.73;3.80;;;;;;;;;;5009424;28;20054;-66
2023/09/03 09:26:18;;;;;;;8.38;3.90;;;;;;;;;;4989370;28;20185;-66
2023/09/03 09:28:59;;;;;;;30.88;15.70;;;;;;;;;;5002569;28;20062;-66
2023/09/03 09:31:30;;;;;;;12.80;5.43;;;;;;;;;;4984700;28;20063;-65
2023/09/03 09:33:59;;;;;;;6.65;2.67;;;;;;;;;;4996729;28;20085;-65
2023/09/03 09:36:26;;;;;;;6.53;2.72;;;;;;;;;;5000925;28;20062;-64
2023/09/03 09:39:05;;;;;;;6.45;2.95;;;;;;;;;;4999348;28;20061;-65
2023/09/03 09:41:37;;;;;;;7.97;3.10;;;;;;;;;;5000512;28;20136;-64
2023/09/03 09:44:10;;;;;;;8.98;3.03;;;;;;;;;;4981367;28;20057;-65
2023/09/03 09:46:38;;;;;;;6.53;2.88;;;;;;;;;;4995080;28;20042;-64
2023/09/03 09:49:07;;;;;;;11.73;4.77;;;;;;;;;;4998326;28;20148;-63
2023/09/03 09:51:34;;;;;;;8.63;3.95;;;;;;;;;;5003112;28;20053;-64
2023/09/03 09:54:02;;;;;;;6.00;2.90;;;;;;;;;;4944108;28;20061;-63
2023/09/03 09:56:34;;;;;;;7.35;2.42;;;;;;;;;;4985725;28;20065;-67
2023/09/03 09:59:01;;;;;;;7.45;3.00;;;;;;;;;;4967836;28;20046;-65
2023/09/03 10:01:43;;;;;;;5.65;2.13;;;;;;;;;;5001643;28;20065;-67
2023/09/03 10:04:10;;;;;;;6.95;2.80;;;;;;;;;;4975746;28;20054;-64
2023/09/03 10:06:37;;;;;;;5.75;2.55;;;;;;;;;;4980356;28;20088;-64
2023/09/03 10:09:07;;;;;;;11.07;2.88;;;;;;;;;;4998721;28;20100;-64
2023/09/03 10:11:34;;;;;;;33.72;18.55;;;;;;;;;;4984929;28;20062;-65
2023/09/03 10:14:00;;;;;;;8.48;3.55;;;;;;;;;;4985719;28;20062;-63
2023/09/03 10:16:29;;;;;;;5.50;2.50;;;;;;;;;;4993879;28;20120;-63
2023/09/03 10:19:02;;;;;;;7.07;2.17;;;;;;;;;;4982289;28;20072;-63
2023/09/03 10:21:31;;;;;;;4.22;2.03;;;;;;;;;;4998412;28;20064;-63
2023/09/03 10:24:00;;;;;;;7.90;2.53;;;;;;;;;;4998593;28;20120;-64
2023/09/03 10:26:35;;;;;;;7.03;2.13;;;;;;;;;;5011274;28;20058;-62
2023/09/03 10:29:05;;;;;;;4.35;2.28;;;;;;;;;;4999449;28;20124;-63
2023/09/03 10:31:35;;;;;;;4.95;2.10;;;;;;;;;;5015441;28;20069;-63
2023/09/03 10:34:01;;;;;;;13.57;5.28;;;;;;;;;;4998190;28;20085;-64
2023/09/03 10:36:30;;;;;;;10.18;3.80;;;;;;;;;;4996178;28;20064;-64
2023/09/03 10:38:59;;;;;;;6.55;2.47;;;;;;;;;;4985934;28;20062;-65
2023/09/03 10:41:29;;;;;;;3.88;1.50;;;;;;;;;;5000157;28;20061;-63
2023/09/03 10:43:56;;;;;;;2.20;1.17;;;;;;;;;;4942791;28;20041;-63
2023/09/03 10:46:26;;;;;;;2.67;1.10;;;;;;;;;;5027302;28;20057;-63
2023/09/03 10:48:55;;;;;;;2.10;1.00;;;;;;;;;;5002166;28;20057;-63
2023/09/03 10:51:34;;;;;;;2.20;1.08;;;;;;;;;;5017991;28;20061;-64
2023/09/03 10:54:16;;;;;;;14.15;8.02;;;;;;;;;;5001308;28;20100;-63
2023/09/03 10:57:19;;;;;;;13.90;4.30;;;;;;;;;;4995650;28;20062;-63
2023/09/03 11:00:13;;;;;;;8.68;4.22;;;;;;;;;;5015179;28;20057;-64
2023/09/03 11:02:40;;;;;;;2.42;1.30;;;;;;;;;;5013323;28;20050;-64
2023/09/03 11:05:13;;;;;;;3.08;1.30;;;;;;;;;;4993806;28;20054;-63
2023/09/03 11:07:40;;;;;;;3.05;1.30;;;;;;;;;;4981186;28;20108;-64
2023/09/03 11:10:43;;;;;;;2.88;1.30;;;;;;;;;;4977328;28;20121;-61
2023/09/03 11:13:13;;;;;;;2.70;1.30;;;;;;;;;;4953501;28;20069;-62
2023/09/03 11:15:55;;;;;;;2.97;1.42;;;;;;;;;;4928466;28;20082;-62
2023/09/03 11:18:22;;;;;;;5.60;1.55;;;;;;;;;;4973515;28;20089;-63
2023/09/03 11:20:51;;;;;;;3.55;1.50;;;;;;;;;;4985662;28;20057;-63
2023/09/03 11:23:18;;;;;;;6.35;1.98;;;;;;;;;;5000954;28;20129;-63
2023/09/03 11:25:46;;;;;;;5.60;1.65;;;;;;;;;;5011629;28;20140;-64
2023/09/03 11:28:13;;;;;;;4.45;1.90;;;;;;;;;;5016451;28;20064;-63
2023/09/03 11:30:43;;;;;;;2.30;1.40;;;;;;;;;;4999072;28;20065;-63
2023/09/03 11:33:23;;;;;;;4.85;1.92;;;;;;;;;;5002704;28;20144;-62
2023/09/03 11:35:53;;;;;;;3.72;1.40;;;;;;;;;;4955678;28;20105;-62
2023/09/03 11:38:22;;;;;;;3.47;1.45;;;;;;;;;;4960144;28;20057;-62
2023/09/03 11:40:53;;;;;;;2.83;1.38;;;;;;;;;;4984510;28;20050;-62
2023/09/03 11:43:20;;;;;;;4.28;1.90;;;;;;;;;;4981074;28;20081;-62
2023/09/03 11:45:47;;;;;;;8.45;4.25;;;;;;;;;;4992270;28;20050;-62
2023/09/03 11:48:13;;;;;;;8.07;4.30;;;;;;;;;;4976440;28;20065;-63
2023/09/03 11:50:40;;;;;;;7.55;1.90;;;;;;;;;;4982120;28;20073;-62
2023/09/03 11:53:10;;;;;;;4.30;1.95;;;;;;;;;;4982634;28;20153;-68
2023/09/03 11:55:39;;;;;;;3.20;1.45;;;;;;;;;;4976834;28;20046;-62
2023/09/03 11:58:09;;;;;;;2.35;1.27;;;;;;;;;;4983127;28;20065;-63
2023/09/03 12:00:37;;;;;;;2.88;1.20;;;;;;;;;;5012751;28;20104;-62
2023/09/03 12:03:05;;;;;;;1.85;1.20;;;;;;;;;;5002062;28;20066;-62
2023/09/03 12:05:34;;;;;;;2.40;0.90;;;;;;;;;;4956880;28;20056;-62
2023/09/03 12:08:05;;;;;;;3.70;1.10;;;;;;;;;;4978720;28;20054;-62
2023/09/03 12:10:33;;;;;;;2.83;1.25;;;;;;;;;;4979744;28;20836;-62
2023/09/03 12:13:03;;;;;;;2.97;1.45;;;;;;;;;;5002124;28;20070;-62
2023/09/03 12:15:32;;;;;;;1.85;1.25;;;;;;;;;;4989606;28;20060;-62
2023/09/03 12:18:09;;;;;;;2.78;1.02;;;;;;;;;;4990736;28;20133;-62
2023/09/03 12:20:39;;;;;;;2.38;1.10;;;;;;;;;;4978951;28;20049;-62
2023/09/03 12:23:12;;;;;;;2.10;1.00;;;;;;;;;;5004939;28;20062;-62
2023/09/03 12:25:44;;;;;;;2.45;1.00;;;;;;;;;;4985288;28;20050;-62
2023/09/03 12:28:12;;;;;;;3.22;0.95;;;;;;;;;;4966369;28;20133;-62
2023/09/03 12:30:55;;;;;;;1.40;1.13;;;;;;;;;;4986990;28;20058;-62
2023/09/03 12:33:23;;;;;;;4.60;1.05;;;;;;;;;;5002108;28;20068;-62
2023/09/03 12:36:12;;;;;;;2.30;1.00;;;;;;;;;;4953487;28;20073;-61
2023/09/03 12:38:53;;;;;;;2.00;1.00;;;;;;;;;;4983512;28;20066;-61
2023/09/03 12:41:22;;;;;;;2.67;1.20;;;;;;;;;;4964597;28;20210;-62
2023/09/03 12:43:49;;;;;;;3.08;1.17;;;;;;;;;;4981285;28;20121;-62
2023/09/03 12:46:16;;;;;;;3.35;0.98;;;;;;;;;;4954683;28;20066;-61
2023/09/03 12:48:44;;;;;;;2.72;1.10;;;;;;;;;;4981967;28;20058;-62
2023/09/03 12:51:11;;;;;;;1.83;1.10;;;;;;;;;;4982685;28;20054;-61
2023/09/03 12:53:39;;;;;;;3.40;1.20;;;;;;;;;;4982568;28;20055;-62
2023/09/03 12:56:06;;;;;;;22.77;12.60;;;;;;;;;;4960436;28;20078;-63
2023/09/03 12:58:34;;;;;;;9.10;4.72;;;;;;;;;;4981077;28;20189;-61
2023/09/03 13:01:01;;;;;;;;;;;;;;;;;;4967819;28;20054;-61
2023/09/03 13:03:28;;;;;;;2.72;1.10;;;;;;;;;;4981726;28;19932;-62
2023/09/03 13:05:56;;;;;;;1.88;1.17;;;;;;;;;;4942053;28;20114;-62
2023/09/03 13:08:23;;;;;;;1.70;1.00;;;;;;;;;;4976198;28;20138;-62
2023/09/03 13:10:51;;;;;;;2.58;1.00;;;;;;;;;;4980021;28;20157;-62
2023/09/03 13:13:18;;;;;;;1.23;0.90;;;;;;;;;;4982090;28;20065;-62
2023/09/03 13:15:48;;;;;;;1.20;1.00;;;;;;;;;;4951429;28;20129;-61
2023/09/03 13:18:18;;;;;;;1.83;1.02;;;;;;;;;;4980901;28;20150;-63
2023/09/03 13:20:46;;;;;;;2.03;1.33;;;;;;;;;;4982733;28;20055;-62
2023/09/03 13:23:12;;;;;;;1.55;1.00;;;;;;;;;;4967071;28;20069;-62
2023/09/03 13:25:40;;;;;;;1.23;0.90;;;;;;;;;;4925777;28;20054;-62
2023/09/03 13:28:09;;;;;;;1.67;0.90;;;;;;;;;;4980269;28;20122;-63
2023/09/03 13:30:39;;;;;;;2.03;1.02;;;;;;;;;;4959721;28;20061;-62
2023/09/03 13:33:11;;;;;;;3.60;1.10;;;;;;;;;;4998128;28;20118;-62
2023/09/03 13:35:51;;;;;;;1.38;0.90;;;;;;;;;;4978047;28;20057;-62
2023/09/03 13:38:18;;;;;;;2.38;1.00;;;;;;;;;;4995819;28;20062;-61
2023/09/03 13:40:45;;;;;;;2.40;1.27;;;;;;;;;;4982776;28;20057;-61
2023/09/03 13:43:12;;;;;;;2.03;1.00;;;;;;;;;;4984875;28;20057;-61
2023/09/03 13:45:39;;;;;;;3.05;1.27;;;;;;;;;;4947594;28;20069;-61
2023/09/03 13:48:08;;;;;;;1.10;0.70;;;;;;;;;;5002561;28;20312;-61
2023/09/03 13:50:35;;;;;;;2.35;1.25;;;;;;;;;;4979537;28;20068;-61
2023/09/03 13:53:02;;;;;;;4.60;2.08;;;;;;;;;;4985395;28;20062;-62
2023/09/03 13:55:28;;;;;;;7.43;3.33;;;;;;;;;;4995199;28;20062;-61
2023/09/03 13:57:55;;;;;;;2.47;1.20;;;;;;;;;;4984387;28;20061;-62
2023/09/03 14:00:22;;;;;;;2.38;1.00;;;;;;;;;;4998240;28;20060;-61
2023/09/03 14:02:49;;;;;;;2.13;1.10;;;;;;;;;;5003217;28;20165;-62
2023/09/03 14:05:20;;;;;;;1.65;1.08;;;;;;;;;;4993086;28;20149;-62
2023/09/03 14:07:46;;;;;;;1.73;0.98;;;;;;;;;;5011763;28;20053;-61
2023/09/03 14:10:13;;;;;;;2.00;0.93;;;;;;;;;;4999965;28;20058;-62
2023/09/03 14:12:40;;;;;;;3.53;1.05;;;;;;;;;;4981284;28;20060;-62
2023/09/03 14:15:15;;;;;;;1.60;0.90;;;;;;;;;;4995078;28;20065;-61
2023/09/03 14:17:42;;;;;;;1.70;0.93;;;;;;;;;;5001979;28;20081;-61
2023/09/03 14:20:13;;;;;;;2.42;1.10;;;;;;;;;;4998006;28;20148;-63
2023/09/03 14:22:43;;;;;;;4.03;1.42;;;;;;;;;;4981809;28;20151;-61
2023/09/03 14:25:09;;;;;;;1.77;0.98;;;;;;;;;;4988394;28;20065;-61
2023/09/03 14:27:36;;;;;;;6.20;2.47;;;;;;;;;;4988306;28;20220;-62
2023/09/03 14:30:04;;;;;;;7.60;3.47;;;;;;;;;;5002748;28;20058;-61
2023/09/03 14:32:30;;;;;;;16.67;8.97;;;;;;;;;;5008020;28;20241;-62
2023/09/03 14:34:57;;;;;;;5.07;2.03;;;;;;;;;;4983756;28;20069;-61
2023/09/03 14:37:24;;;;;;;3.38;1.10;;;;;;;;;;5016797;28;20054;-60
2023/09/03 14:39:55;;;;;;;1.77;0.85;;;;;;;;;;4999525;28;20130;-61
2023/09/03 14:42:21;;;;;;;1.90;1.02;;;;;;;;;;4994497;28;20050;-62
2023/09/03 14:44:48;;;;;;;1.88;1.00;;;;;;;;;;4966399;28;20062;-62
2023/09/03 14:47:21;;;;;;;2.05;1.00;;;;;;;;;;5023227;28;20057;-62
2023/09/03 14:49:52;;;;;;;1.65;1.08;;;;;;;;;;5000317;28;20045;-62
2023/09/03 14:52:22;;;;;;;1.55;0.90;;;;;;;;;;4996954;28;20054;-62
2023/09/03 14:54:49;;;;;;;2.08;1.05;;;;;;;;;;4978913;28;20140;-62